Time;durP1;ratioP1;P1;durP2;ratioP2;P2;SDS_P1;SDS_P2;PMS_P1;PMS_P2;Temp;Humidity;BMP_temperature;BMP_pressure;BME280_temperature;BME280_humidity;BME280_pressure;Samples;Min_cycle;Max_cycle;Signal;HPM_P1;HPM_P2
2020/12/01 00:00:00;;;;;;;16.90;9.63;;;2.20;99.90;;;;;;5083594;27;20445;-68
2020/12/01 00:02:26;;;;;;;17.30;8.10;;;2.20;99.90;;;;;;5077465;27;20236;-69
2020/12/01 00:04:52;;;;;;;20.60;10.10;;;2.20;99.90;;;;;;5094841;27;20225;-68
2020/12/01 00:07:18;;;;;;;24.20;10.77;;;2.20;99.90;;;;;;5065573;27;20444;-69
2020/12/01 00:09:44;;;;;;;17.23;8.67;;;2.20;99.90;;;;;;5060830;27;20447;-70
2020/12/01 00:12:10;;;;;;;14.70;7.97;;;2.20;99.90;;;;;;5098319;28;20222;-69
2020/12/01 00:14:36;;;;;;;17.97;8.77;;;2.20;99.90;;;;;;5099251;27;20549;-69
2020/12/01 00:17:02;;;;;;;15.10;8.47;;;2.20;99.90;;;;;;5087635;27;20480;-68
2020/12/01 00:19:27;;;;;;;23.13;10.00;;;2.20;99.90;;;;;;5131130;27;20213;-68
2020/12/01 00:21:53;;;;;;;22.37;9.33;;;2.20;99.90;;;;;;5099781;27;20629;-68
2020/12/01 00:24:19;;;;;;;18.70;9.23;;;2.20;99.90;;;;;;5130244;27;20232;-69
2020/12/01 00:26:45;;;;;;;19.90;9.10;;;2.20;99.90;;;;;;5118449;27;20244;-69
2020/12/01 00:29:11;;;;;;;21.63;10.07;;;2.30;99.90;;;;;;5090948;28;20552;-69
2020/12/01 00:31:42;;;;;;;17.63;8.97;;;2.30;99.90;;;;;;5094705;28;20967;-68
2020/12/01 00:34:12;;;;;;;17.87;8.70;;;2.30;99.90;;;;;;5104772;28;20464;-68
2020/12/01 00:36:38;;;;;;;14.50;8.27;;;2.30;99.90;;;;;;5094959;28;20938;-68
2020/12/01 00:39:04;;;;;;;21.73;8.73;;;2.20;99.90;;;;;;5094866;27;20507;-68
2020/12/01 00:41:30;;;;;;;21.40;9.17;;;2.30;99.90;;;;;;5086972;27;20288;-67
2020/12/01 00:43:57;;;;;;;23.63;9.73;;;2.30;99.90;;;;;;5101364;27;20462;-67
2020/12/01 00:46:22;;;;;;;22.07;10.13;;;2.20;99.90;;;;;;5106755;28;20440;-68
2020/12/01 00:48:48;;;;;;;21.20;9.50;;;2.20;99.90;;;;;;5085072;28;20606;-67
2020/12/01 00:51:16;;;;;;;15.83;8.03;;;2.20;99.90;;;;;;5094636;27;20218;-67
2020/12/01 00:53:41;;;;;;;17.73;9.60;;;2.30;99.90;;;;;;5095697;28;20459;-67
2020/12/01 00:56:09;;;;;;;23.57;9.60;;;2.30;99.90;;;;;;5099336;27;20297;-67
2020/12/01 00:58:35;;;;;;;13.40;7.20;;;2.30;99.90;;;;;;5095411;27;20455;-67
2020/12/01 01:01:19;;;;;;;14.87;7.23;;;2.30;99.90;;;;;;5090438;27;20452;-67
2020/12/01 01:03:49;;;;;;;18.90;9.00;;;2.40;99.90;;;;;;5090417;27;20464;-67
2020/12/01 01:06:15;;;;;;;17.00;7.83;;;2.40;99.90;;;;;;5089957;27;20450;-67
2020/12/01 01:08:41;;;;;;;23.00;9.70;;;2.30;99.90;;;;;;5117989;27;20458;-66
2020/12/01 01:11:09;;;;;;;21.13;9.53;;;2.30;99.90;;;;;;5082343;27;20456;-66
2020/12/01 01:13:36;;;;;;;20.00;8.03;;;2.20;99.90;;;;;;5067945;27;20468;-67
2020/12/01 01:16:03;;;;;;;19.67;7.80;;;2.20;99.90;;;;;;5098559;27;20980;-69
2020/12/01 01:18:29;;;;;;;15.63;7.37;;;2.20;99.90;;;;;;5110428;27;20522;-67
2020/12/01 01:20:55;;;;;;;20.63;9.87;;;2.20;99.90;;;;;;5109290;27;20892;-67
2020/12/01 01:23:20;;;;;;;23.20;8.63;;;2.20;99.90;;;;;;5116095;27;20231;-67
2020/12/01 01:25:46;;;;;;;16.80;9.40;;;2.20;99.90;;;;;;5107164;27;20221;-68
2020/12/01 01:28:12;;;;;;;18.80;7.97;;;2.20;99.90;;;;;;5070945;27;20224;-67
2020/12/01 01:30:40;;;;;;;20.77;8.07;;;2.10;99.90;;;;;;5114565;27;20308;-67
2020/12/01 01:33:08;;;;;;;16.90;8.90;;;2.20;99.90;;;;;;5105521;27;20209;-67
2020/12/01 01:35:34;;;;;;;17.87;8.80;;;2.20;99.90;;;;;;5108347;27;20535;-69
2020/12/01 01:38:05;;;;;;;14.30;8.47;;;2.20;99.90;;;;;;5107069;27;20459;-67
2020/12/01 01:40:31;;;;;;;16.47;9.43;;;2.20;99.90;;;;;;5077764;27;20455;-67
2020/12/01 01:42:58;;;;;;;22.17;10.00;;;2.20;99.90;;;;;;5078513;27;20455;-67
2020/12/01 01:45:40;;;;;;;17.50;9.67;;;2.20;99.90;;;;;;5092154;27;20823;-67
2020/12/01 01:48:33;;;;;;;16.90;8.57;;;2.10;99.90;;;;;;5097960;27;20443;-67
2020/12/01 01:51:16;;;;;;;18.90;8.57;;;2.10;99.90;;;;;;5127526;27;20469;-66
2020/12/01 01:53:51;;;;;;;14.73;8.43;;;2.00;99.90;;;;;;5098453;27;20455;-67
2020/12/01 01:56:23;;;;;;;22.57;10.07;;;2.00;99.90;;;;;;5087180;27;20442;-67
2020/12/01 01:58:52;;;;;;;15.50;9.67;;;2.00;99.90;;;;;;5091744;27;20460;-68
2020/12/01 02:01:22;;;;;;;19.50;10.10;;;2.10;99.90;;;;;;5111740;27;21022;-67
2020/12/01 02:03:54;;;;;;;12.83;7.60;;;2.10;99.90;;;;;;5102229;27;20458;-68
2020/12/01 02:06:24;;;;;;;13.30;8.00;;;2.20;99.90;;;;;;5098256;27;20443;-67
2020/12/01 02:08:58;;;;;;;17.23;8.33;;;2.20;99.90;;;;;;5097485;27;20452;-67
2020/12/01 02:11:26;;;;;;;19.67;9.20;;;2.20;99.90;;;;;;5091671;27;20530;-67
2020/12/01 02:14:15;;;;;;;19.03;10.40;;;2.20;99.90;;;;;;5093425;28;21556;-67
2020/12/01 02:16:44;;;;;;;13.80;7.90;;;2.20;99.90;;;;;;5077699;28;20531;-68
2020/12/01 02:19:19;;;;;;;14.63;7.27;;;2.20;99.90;;;;;;5076455;28;20972;-67
2020/12/01 02:21:45;;;;;;;16.27;7.50;;;2.20;99.90;;;;;;5088572;27;20470;-68
2020/12/01 02:24:16;;;;;;;19.53;9.40;;;2.20;99.90;;;;;;5100251;27;20529;-67
2020/12/01 02:26:45;;;;;;;15.80;8.53;;;2.20;99.90;;;;;;5118653;27;20478;-68
2020/12/01 02:29:14;;;;;;;13.70;7.47;;;2.20;99.90;;;;;;5120428;27;20442;-67
2020/12/01 02:31:40;;;;;;;15.53;7.37;;;2.20;99.90;;;;;;5097578;27;20446;-67
2020/12/01 02:34:12;;;;;;;16.93;8.73;;;2.20;99.90;;;;;;5128350;27;20461;-67
2020/12/01 02:36:38;;;;;;;18.00;9.37;;;2.20;99.90;;;;;;5080825;27;20448;-67
2020/12/01 02:39:06;;;;;;;13.63;7.27;;;2.20;99.90;;;;;;5095964;27;20455;-67
2020/12/01 02:41:32;;;;;;;14.30;8.37;;;2.20;99.90;;;;;;5106639;28;20466;-68
2020/12/01 02:43:58;;;;;;;13.03;7.67;;;2.30;99.90;;;;;;5106237;27;20470;-67
2020/12/01 02:46:26;;;;;;;19.43;9.87;;;2.30;99.90;;;;;;5097337;27;20218;-67
2020/12/01 02:48:51;;;;;;;15.60;6.97;;;2.30;99.90;;;;;;5077979;27;20827;-68
2020/12/01 02:51:17;;;;;;;16.03;8.30;;;2.30;99.90;;;;;;5086777;28;20451;-68
2020/12/01 02:53:42;;;;;;;15.33;8.23;;;2.30;99.90;;;;;;5085669;27;20225;-68
2020/12/01 02:56:08;;;;;;;15.50;8.70;;;2.30;99.90;;;;;;5096216;27;20229;-67
2020/12/01 02:58:34;;;;;;;18.37;8.90;;;2.30;99.90;;;;;;5092951;28;20282;-67
2020/12/01 03:00:59;;;;;;;14.93;8.17;;;2.30;99.90;;;;;;5073809;28;20210;-67
2020/12/01 03:03:25;;;;;;;13.27;6.63;;;2.20;99.90;;;;;;5065331;28;20226;-67
2020/12/01 03:05:51;;;;;;;17.00;7.63;;;2.10;99.90;;;;;;5092516;27;20660;-68
2020/12/01 03:08:16;;;;;;;13.67;7.87;;;2.10;99.90;;;;;;5079364;27;20274;-68
2020/12/01 03:10:42;;;;;;;17.97;8.20;;;2.20;99.90;;;;;;5092053;28;20225;-67
2020/12/01 03:13:08;;;;;;;14.03;7.80;;;2.20;99.90;;;;;;5100720;27;20257;-68
2020/12/01 03:15:33;;;;;;;16.20;8.13;;;2.10;99.90;;;;;;5079191;27;20210;-68
2020/12/01 03:17:59;;;;;;;12.17;7.70;;;2.10;99.90;;;;;;5092881;27;20213;-68
2020/12/01 03:20:24;;;;;;;15.20;8.47;;;2.20;99.90;;;;;;5076639;27;20226;-67
2020/12/01 03:22:50;;;;;;;13.87;7.10;;;2.20;99.90;;;;;;5107277;28;20692;-70
2020/12/01 03:25:16;;;;;;;15.10;7.93;;;2.20;99.90;;;;;;5092257;27;20234;-67
2020/12/01 03:27:41;;;;;;;13.67;8.30;;;2.20;99.90;;;;;;5125816;27;20213;-68
2020/12/01 03:30:08;;;;;;;17.27;9.00;;;2.10;99.90;;;;;;5082166;27;20222;-68
2020/12/01 03:32:34;;;;;;;16.93;9.37;;;2.10;99.90;;;;;;5094867;27;20237;-68
2020/12/01 03:34:59;;;;;;;18.37;9.40;;;2.10;99.90;;;;;;5086915;27;20491;-67
2020/12/01 03:37:25;;;;;;;13.10;8.27;;;2.10;99.90;;;;;;5081026;28;20448;-67
2020/12/01 03:39:51;;;;;;;15.43;7.37;;;2.10;99.90;;;;;;5086868;27;20452;-67
2020/12/01 03:42:17;;;;;;;19.53;9.37;;;2.10;99.90;;;;;;5079370;27;20822;-67
2020/12/01 03:44:43;;;;;;;21.97;8.70;;;2.10;99.90;;;;;;5095415;27;20708;-67
2020/12/01 03:47:08;;;;;;;20.23;9.63;;;2.20;99.90;;;;;;5095535;27;20221;-67
2020/12/01 03:49:34;;;;;;;19.03;8.07;;;2.20;99.90;;;;;;5089789;27;20217;-67
2020/12/01 03:52:00;;;;;;;14.63;6.30;;;2.20;99.90;;;;;;5090153;27;20236;-67
2020/12/01 03:54:26;;;;;;;18.47;8.17;;;2.30;99.90;;;;;;5074839;28;20246;-68
2020/12/01 03:56:51;;;;;;;11.90;7.63;;;2.30;99.90;;;;;;5058230;28;20225;-69
2020/12/01 03:59:17;;;;;;;14.33;8.10;;;2.30;99.90;;;;;;5097705;27;20455;-67
2020/12/01 04:01:43;;;;;;;14.07;7.37;;;2.40;99.90;;;;;;5095413;27;20221;-68
2020/12/01 04:04:09;;;;;;;12.90;7.83;;;2.40;99.90;;;;;;5090006;28;20240;-67
2020/12/01 04:06:34;;;;;;;17.80;8.17;;;2.40;99.90;;;;;;5059485;28;20460;-67
2020/12/01 04:09:02;;;;;;;16.97;7.77;;;2.40;99.90;;;;;;5102736;27;20225;-68
2020/12/01 04:11:28;;;;;;;11.90;7.70;;;2.40;99.90;;;;;;5112681;27;20220;-68
2020/12/01 04:13:54;;;;;;;13.97;7.87;;;2.40;99.90;;;;;;5057529;28;20448;-67
2020/12/01 04:16:19;;;;;;;11.83;7.27;;;2.50;99.90;;;;;;5059403;28;20245;-67
2020/12/01 04:18:45;;;;;;;12.87;7.33;;;2.50;99.90;;;;;;5060450;27;20229;-67
2020/12/01 04:21:11;;;;;;;12.00;7.27;;;2.50;99.90;;;;;;5094478;27;20221;-67
2020/12/01 04:23:37;;;;;;;18.40;8.37;;;2.50;99.90;;;;;;5107095;28;20325;-67
2020/12/01 04:26:03;;;;;;;12.50;6.43;;;2.50;99.90;;;;;;5090665;28;20526;-67
2020/12/01 04:28:29;;;;;;;13.60;7.07;;;2.50;99.90;;;;;;5095094;28;20265;-67
2020/12/01 04:30:55;;;;;;;14.00;7.57;;;2.50;99.90;;;;;;5078086;28;20220;-68
2020/12/01 04:33:20;;;;;;;15.33;7.50;;;2.50;99.90;;;;;;5089889;28;20228;-67
2020/12/01 04:35:46;;;;;;;14.03;7.60;;;2.50;99.90;;;;;;5049524;28;20221;-67
2020/12/01 04:38:11;;;;;;;12.87;6.77;;;2.40;99.90;;;;;;5099434;28;20229;-67
2020/12/01 04:40:39;;;;;;;11.50;6.40;;;2.40;99.90;;;;;;5058818;28;20251;-68
2020/12/01 04:43:25;;;;;;;18.33;6.80;;;2.40;99.90;;;;;;5084865;28;20312;-67
2020/12/01 04:45:51;;;;;;;13.57;7.30;;;2.40;99.90;;;;;;5075323;28;20571;-67
2020/12/01 04:48:30;;;;;;;14.30;7.00;;;2.40;99.90;;;;;;5106650;28;20451;-67
2020/12/01 04:51:37;;;;;;;16.20;6.43;;;2.40;99.90;;;;;;5094613;28;20453;-66
2020/12/01 04:54:21;;;;;;;11.83;7.30;;;2.40;99.90;;;;;;5006614;28;20544;-66
2020/12/01 04:57:16;;;;;;;13.03;6.43;;;2.40;99.90;;;;;;5123971;28;20503;-67
2020/12/01 05:00:08;;;;;;;12.83;8.07;;;2.40;99.90;;;;;;5093437;28;21006;-67
2020/12/01 05:03:00;;;;;;;15.53;6.90;;;2.40;99.90;;;;;;5111780;28;20471;-67
2020/12/01 05:05:49;;;;;;;13.83;8.07;;;2.50;99.90;;;;;;5095186;28;20468;-67
2020/12/01 05:09:17;;;;;;;12.03;8.30;;;2.50;99.90;;;;;;5094980;28;20974;-67
2020/12/01 05:11:48;;;;;;;9.90;4.87;;;2.40;99.90;;;;;;4991306;28;20456;-67
2020/12/01 05:14:20;;;;;;;10.03;6.10;;;2.40;99.90;;;;;;5100081;28;20488;-67
2020/12/01 05:16:54;;;;;;;12.87;7.43;;;2.50;99.90;;;;;;5091990;28;20897;-67
2020/12/01 05:19:41;;;;;;;10.17;6.03;;;2.50;99.90;;;;;;5064323;28;20495;-67
2020/12/01 05:22:08;;;;;;;9.70;6.33;;;2.50;99.90;;;;;;5082522;28;21045;-68
2020/12/01 05:24:39;;;;;;;10.17;6.00;;;2.50;99.90;;;;;;5106104;28;20455;-67
2020/12/01 05:27:05;;;;;;;13.60;7.03;;;2.50;99.90;;;;;;5097933;27;20443;-67
2020/12/01 05:29:30;;;;;;;10.77;5.80;;;2.50;99.90;;;;;;5095357;28;20805;-68
2020/12/01 05:31:56;;;;;;;8.50;6.30;;;2.60;99.90;;;;;;5097201;27;20210;-67
2020/12/01 05:34:22;;;;;;;13.10;6.87;;;2.60;99.90;;;;;;5088437;27;20245;-67
2020/12/01 05:36:48;;;;;;;11.00;6.43;;;2.60;99.90;;;;;;5094829;28;20217;-67
2020/12/01 05:39:20;;;;;;;11.40;7.07;;;2.50;99.90;;;;;;5077966;28;20225;-66
2020/12/01 05:41:59;;;;;;;12.03;6.93;;;2.50;99.90;;;;;;5078064;28;20991;-67
2020/12/01 05:44:28;;;;;;;12.77;7.20;;;2.50;99.90;;;;;;5078395;28;20498;-67
2020/12/01 05:47:05;;;;;;;9.17;6.00;;;2.50;99.90;;;;;;5125601;27;20458;-67
2020/12/01 05:50:04;;;;;;;12.53;6.30;;;2.50;99.90;;;;;;5098264;27;20859;-69
2020/12/01 05:52:41;;;;;;;9.87;5.53;;;2.50;99.90;;;;;;5097232;27;20850;-67
2020/12/01 05:55:13;;;;;;;7.73;5.30;;;2.60;99.90;;;;;;5109137;27;20439;-67
2020/12/01 05:57:39;;;;;;;9.30;6.17;;;2.60;99.90;;;;;;5097712;27;20442;-67
2020/12/01 06:00:16;;;;;;;11.40;5.40;;;2.60;99.90;;;;;;5085372;27;20526;-67
2020/12/01 06:03:00;;;;;;;11.03;5.97;;;2.60;99.90;;;;;;5111660;27;20463;-67
2020/12/01 06:05:27;;;;;;;8.83;5.30;;;2.60;99.90;;;;;;5098088;27;20447;-67
2020/12/01 06:07:59;;;;;;;6.73;4.87;;;2.60;99.90;;;;;;5097040;27;20482;-67
2020/12/01 06:10:40;;;;;;;13.00;6.20;;;2.60;99.90;;;;;;5097568;27;20441;-68
2020/12/01 06:13:11;;;;;;;10.33;5.37;;;2.60;99.90;;;;;;5102113;28;20816;-68
2020/12/01 06:15:52;;;;;;;9.43;5.17;;;2.60;99.90;;;;;;5096714;27;20454;-67
2020/12/01 06:18:32;;;;;;;7.90;4.63;;;2.60;99.90;;;;;;5114590;27;20491;-67
2020/12/01 06:21:06;;;;;;;10.27;5.77;;;2.50;99.90;;;;;;5109392;28;20467;-68
2020/12/01 06:23:51;;;;;;;18.43;9.50;;;2.50;99.90;;;;;;5077654;28;20884;-70
2020/12/01 06:27:04;;;;;;;15.33;9.13;;;2.50;99.90;;;;;;5077231;28;20538;-70
2020/12/01 06:30:01;;;;;;;14.47;7.77;;;2.50;99.90;;;;;;5063742;28;20449;-67
2020/12/01 06:32:39;;;;;;;11.47;6.30;;;2.50;99.90;;;;;;5036242;28;20464;-68
2020/12/01 06:35:30;;;;;;;8.80;6.00;;;2.50;99.90;;;;;;5106598;27;20577;-68
2020/12/01 06:38:10;;;;;;;14.10;7.07;;;2.50;99.90;;;;;;5111950;27;20451;-68
2020/12/01 06:40:55;;;;;;;9.73;5.50;;;2.40;99.90;;;;;;5114017;27;20471;-67
2020/12/01 06:43:24;;;;;;;7.03;5.30;;;2.50;99.90;;;;;;5095734;27;20531;-68
2020/12/01 06:45:54;;;;;;;10.57;5.77;;;2.50;99.90;;;;;;5097185;27;20462;-67
2020/12/01 06:48:42;;;;;;;8.70;5.00;;;2.50;99.90;;;;;;5114348;27;20443;-68
2020/12/01 06:51:11;;;;;;;9.33;5.60;;;2.60;99.90;;;;;;5091211;28;20452;-67
2020/12/01 06:53:39;;;;;;;10.60;6.40;;;2.60;99.90;;;;;;5093928;28;20460;-67
2020/12/01 06:56:05;;;;;;;10.97;5.97;;;2.60;99.90;;;;;;5092855;28;20492;-67
2020/12/01 06:58:39;;;;;;;10.97;5.37;;;2.60;99.90;;;;;;5114059;27;20493;-68
2020/12/01 07:01:17;;;;;;;12.77;6.00;;;2.50;99.90;;;;;;5078364;27;20220;-68
2020/12/01 07:03:43;;;;;;;14.67;7.70;;;2.50;99.90;;;;;;5096969;27;21047;-67
2020/12/01 07:06:49;;;;;;;16.73;8.10;;;2.40;99.90;;;;;;5076689;28;20516;-67
2020/12/01 07:09:24;;;;;;;11.27;6.23;;;2.40;99.90;;;;;;5081601;28;20883;-68
2020/12/01 07:11:52;;;;;;;7.17;4.90;;;2.30;99.90;;;;;;5116677;27;20467;-67
2020/12/01 07:14:24;;;;;;;11.00;6.43;;;2.30;99.90;;;;;;5106312;27;20487;-67
2020/12/01 07:16:50;;;;;;;13.03;6.77;;;2.30;99.90;;;;;;5096877;27;20458;-68
2020/12/01 07:19:43;;;;;;;42.20;17.50;;;2.30;99.90;;;;;;5096133;27;20515;-67
2020/12/01 07:22:34;;;;;;;58.47;28.37;;;2.30;99.90;;;;;;5090282;28;20222;-68
2020/12/01 07:25:17;;;;;;;29.73;18.77;;;2.30;99.90;;;;;;5129452;27;20532;-70
2020/12/01 07:27:53;;;;;;;38.83;17.73;;;2.30;99.90;;;;;;5093671;27;20460;-66
2020/12/01 07:30:25;;;;;;;53.00;25.77;;;2.30;99.90;;;;;;5097171;27;20534;-67
2020/12/01 07:32:57;;;;;;;43.63;22.73;;;2.40;99.90;;;;;;5102105;27;20555;-68
2020/12/01 07:35:35;;;;;;;24.27;11.33;;;2.40;99.90;;;;;;5116945;27;20827;-68
2020/12/01 07:38:05;;;;;;;16.70;11.50;;;2.40;99.90;;;;;;5120972;27;20463;-69
2020/12/01 07:40:42;;;;;;;18.63;10.80;;;2.40;99.90;;;;;;5105219;27;20981;-67
2020/12/01 07:43:12;;;;;;;14.57;7.90;;;2.50;99.90;;;;;;5078131;27;20475;-66
2020/12/01 07:45:37;;;;;;;13.03;7.40;;;2.40;99.90;;;;;;5076696;27;20815;-69
2020/12/01 07:48:03;;;;;;;18.17;9.37;;;2.50;99.90;;;;;;5093962;27;20453;-69
2020/12/01 07:50:31;;;;;;;16.40;10.93;;;2.50;99.90;;;;;;5094132;27;20278;-68
2020/12/01 07:53:19;;;;;;;17.67;8.90;;;2.50;99.90;;;;;;5094437;27;20279;-67
2020/12/01 07:55:56;;;;;;;15.13;7.60;;;2.50;99.90;;;;;;5092344;28;20463;-67
2020/12/01 07:58:27;;;;;;;10.30;5.97;;;2.60;99.90;;;;;;5106840;28;20454;-68
2020/12/01 08:01:12;;;;;;;9.77;5.47;;;2.60;99.90;;;;;;5097912;27;20468;-67
2020/12/01 08:03:38;;;;;;;12.90;7.07;;;2.60;99.90;;;;;;5093743;27;20483;-69
2020/12/01 08:06:16;;;;;;;13.50;6.37;;;2.60;99.90;;;;;;5111914;27;20451;-69
2020/12/01 08:08:45;;;;;;;13.90;6.43;;;2.70;99.90;;;;;;5129945;27;20824;-67
2020/12/01 08:11:13;;;;;;;9.87;5.30;;;2.70;99.90;;;;;;5061132;27;20459;-67
2020/12/01 08:13:41;;;;;;;13.73;6.70;;;2.70;99.90;;;;;;5086768;28;20468;-68
2020/12/01 08:16:14;;;;;;;9.33;6.40;;;2.70;99.90;;;;;;5110990;27;20445;-67
2020/12/01 08:18:40;;;;;;;9.37;6.30;;;2.70;99.90;;;;;;5095227;27;20456;-69
2020/12/01 08:21:07;;;;;;;9.47;6.13;;;2.70;99.90;;;;;;5093288;27;20471;-68
2020/12/01 08:23:33;;;;;;;30.07;14.57;;;2.80;99.90;;;;;;5091113;28;20724;-70
2020/12/01 08:26:11;;;;;;;28.30;16.23;;;2.80;99.90;;;;;;5093954;27;20489;-70
2020/12/01 08:28:43;;;;;;;20.07;10.37;;;2.80;99.90;;;;;;5094918;28;20455;-68
2020/12/01 08:31:32;;;;;;;17.57;8.67;;;2.80;99.90;;;;;;5091693;28;20459;-69
2020/12/01 08:34:09;;;;;;;10.73;7.10;;;2.80;99.90;;;;;;5106451;28;20454;-70
2020/12/01 08:36:50;;;;;;;11.90;6.80;;;2.80;99.90;;;;;;5089772;28;20437;-66
2020/12/01 08:39:45;;;;;;;10.53;6.37;;;2.80;99.90;;;;;;5106215;28;20525;-67
2020/12/01 08:42:57;;;;;;;10.73;6.90;;;2.90;99.90;;;;;;5108728;28;20526;-70
2020/12/01 08:45:37;;;;;;;12.83;4.73;;;2.80;99.90;;;;;;5085783;28;20457;-69
2020/12/01 08:48:38;;;;;;;8.27;4.80;;;2.90;99.90;;;;;;5093823;28;20452;-70
2020/12/01 08:51:26;;;;;;;8.33;5.10;;;2.90;99.90;;;;;;5034644;28;20511;-70
2020/12/01 08:54:15;;;;;;;9.17;5.23;;;2.90;99.90;;;;;;5108361;27;20509;-68
2020/12/01 08:56:47;;;;;;;10.90;4.90;;;2.90;99.90;;;;;;5110550;28;20454;-67
2020/12/01 08:59:26;;;;;;;16.50;6.60;;;2.90;99.90;;;;;;5097302;27;20446;-67
2020/12/01 09:01:54;;;;;;;9.43;5.43;;;2.90;99.90;;;;;;5088743;27;20462;-68
2020/12/01 09:04:27;;;;;;;7.97;5.63;;;2.90;99.90;;;;;;5093500;28;20455;-70
2020/12/01 09:06:56;;;;;;;12.73;6.70;;;2.90;99.90;;;;;;5092637;27;20451;-67
2020/12/01 09:09:27;;;;;;;15.57;7.93;;;2.90;99.90;;;;;;5115561;27;20647;-67
2020/12/01 09:17:19;;;;;;;10.77;6.50;;;2.90;99.90;;;;;;5114067;27;20463;-67
2020/12/01 09:22:35;;;;;;;9.33;5.90;;;2.90;99.90;;;;;;5095714;27;20970;-67
2020/12/01 09:25:21;;;;;;;10.40;6.00;;;2.90;99.90;;;;;;5098048;27;20457;-67
2020/12/01 09:27:49;;;;;;;13.37;5.77;;;3.00;99.90;;;;;;5090451;27;20431;-68
2020/12/01 09:30:27;;;;;;;11.97;7.07;;;3.00;99.90;;;;;;5086222;28;20844;-69
2020/12/01 09:32:53;;;;;;;12.60;6.73;;;3.00;99.90;;;;;;5110644;27;20458;-68
2020/12/01 09:35:19;;;;;;;11.70;6.20;;;3.00;99.90;;;;;;5092953;28;20446;-67
2020/12/01 09:37:45;;;;;;;27.40;8.13;;;3.00;99.90;;;;;;5095349;27;20454;-69
2020/12/01 09:40:11;;;;;;;12.57;8.13;;;3.00;99.90;;;;;;5097878;27;20228;-67
2020/12/01 09:42:38;;;;;;;12.67;8.07;;;3.00;99.90;;;;;;5133882;27;20594;-68
2020/12/01 09:49:59;;;;;;;8.37;6.13;;;3.00;99.90;;;;;;5095294;27;20500;-68
2020/12/01 09:52:33;;;;;;;14.10;8.00;;;3.00;99.90;;;;;;5112699;27;20482;-67
2020/12/01 09:55:08;;;;;;;14.87;7.07;;;3.00;99.90;;;;;;5078634;28;20220;-69
2020/12/01 09:58:07;;;;;;;10.30;6.90;;;3.10;99.90;;;;;;5079805;27;20459;-69
2020/12/01 10:02:46;;;;;;;11.67;7.63;;;3.10;99.90;;;;;;5097566;27;20511;-67
2020/12/01 10:09:04;;;;;;;9.67;5.57;;;3.10;99.90;;;;;;5099229;27;20463;-67
2020/12/01 10:30:10;;;;;;;18.97;9.00;;;3.10;99.90;;;;;;5114577;27;20470;-67
2020/12/01 10:36:28;;;;;;;25.23;14.20;;;3.20;99.90;;;;;;5099560;27;20855;-69
2020/12/01 10:38:54;;;;;;;22.90;12.70;;;3.20;99.90;;;;;;5114247;27;20787;-68
2020/12/01 10:41:28;;;;;;;20.97;10.83;;;3.20;99.90;;;;;;5097039;27;20786;-68
2020/12/01 10:43:54;;;;;;;16.00;9.60;;;3.20;99.90;;;;;;5097027;27;20473;-68
2020/12/01 10:46:19;;;;;;;15.93;9.40;;;3.20;99.90;;;;;;5107839;28;20455;-69
2020/12/01 10:48:45;;;;;;;17.47;11.47;;;3.20;99.90;;;;;;5077348;28;20671;-68
2020/12/01 10:51:10;;;;;;;16.47;9.17;;;3.20;99.90;;;;;;5096301;27;20766;-68
2020/12/01 10:53:36;;;;;;;9.87;6.53;;;3.20;99.90;;;;;;5080633;27;20241;-68
2020/12/01 10:56:02;;;;;;;13.50;7.20;;;3.20;99.90;;;;;;5063321;27;20223;-69
2020/12/01 10:58:28;;;;;;;12.00;6.60;;;3.20;99.90;;;;;;5079697;27;20225;-70
2020/12/01 11:00:55;;;;;;;7.17;5.53;;;3.30;99.90;;;;;;5094507;27;20459;-68
2020/12/01 11:03:20;;;;;;;10.53;6.67;;;3.30;99.90;;;;;;5090503;27;20220;-68
2020/12/01 11:05:46;;;;;;;9.07;7.13;;;3.30;99.90;;;;;;5096796;27;20826;-69
2020/12/01 11:08:13;;;;;;;12.30;8.20;;;3.30;99.90;;;;;;5079395;27;20234;-69
2020/12/01 11:10:40;;;;;;;13.20;8.40;;;3.30;99.90;;;;;;5113500;27;20231;-69
2020/12/01 11:13:07;;;;;;;10.77;7.30;;;3.30;99.90;;;;;;5091896;27;20819;-68
2020/12/01 11:15:33;;;;;;;10.13;7.10;;;3.30;99.90;;;;;;5060502;28;20506;-69
2020/12/01 11:17:58;;;;;;;12.37;7.03;;;3.30;99.90;;;;;;5092391;27;20451;-69
2020/12/01 11:20:24;;;;;;;7.73;5.10;;;3.40;99.90;;;;;;5105555;27;20246;-68
2020/12/01 11:22:50;;;;;;;9.30;5.73;;;3.40;99.90;;;;;;5112522;28;20213;-67
2020/12/01 11:25:20;;;;;;;8.03;5.13;;;3.30;99.90;;;;;;5083519;28;20220;-68
2020/12/01 11:27:47;;;;;;;7.13;4.30;;;3.40;99.90;;;;;;5100279;27;20458;-68
2020/12/01 11:30:14;;;;;;;8.40;4.90;;;3.40;99.90;;;;;;5110696;27;20443;-68
2020/12/01 11:32:40;;;;;;;12.23;6.23;;;3.40;99.90;;;;;;5110185;27;20462;-68
2020/12/01 11:35:07;;;;;;;7.70;5.33;;;3.40;99.90;;;;;;5095515;27;20459;-70
2020/12/01 11:37:33;;;;;;;8.23;5.40;;;3.40;99.90;;;;;;5084923;27;20259;-69
2020/12/01 11:39:58;;;;;;;10.23;5.47;;;3.40;99.90;;;;;;5112512;27;20462;-69
2020/12/01 11:42:24;;;;;;;6.27;4.97;;;3.40;99.90;;;;;;5095798;27;20234;-69
2020/12/01 11:44:50;;;;;;;8.50;4.63;;;3.40;99.90;;;;;;5095967;27;20217;-69
2020/12/01 11:47:15;;;;;;;8.60;5.03;;;3.40;99.90;;;;;;5078314;27;20236;-69
2020/12/01 11:49:41;;;;;;;8.40;6.00;;;3.40;99.90;;;;;;5095563;27;20627;-70
2020/12/01 11:52:07;;;;;;;11.57;6.07;;;3.40;99.90;;;;;;5112579;27;20248;-69
2020/12/01 11:54:32;;;;;;;10.00;5.20;;;3.50;99.90;;;;;;5076459;28;20273;-70
2020/12/01 11:56:58;;;;;;;9.43;6.17;;;3.50;99.90;;;;;;5091977;28;20699;-69
2020/12/01 11:59:24;;;;;;;9.73;6.60;;;3.50;99.90;;;;;;5091424;27;20868;-70
2020/12/01 12:01:49;;;;;;;7.47;6.30;;;3.50;99.90;;;;;;5087042;27;20224;-72
2020/12/01 12:04:15;;;;;;;13.30;6.90;;;3.50;99.90;;;;;;5077632;27;20274;-71
2020/12/01 12:06:41;;;;;;;11.87;6.47;;;3.50;99.90;;;;;;5095765;27;20691;-72
2020/12/01 12:09:09;;;;;;;11.80;6.73;;;3.50;99.90;;;;;;5077714;27;20216;-72
2020/12/01 12:11:35;;;;;;;15.70;8.30;;;3.60;99.90;;;;;;5088331;28;20594;-71
2020/12/01 12:14:02;;;;;;;13.60;7.73;;;3.60;99.90;;;;;;5091296;28;20468;-72
2020/12/01 12:16:28;;;;;;;10.67;6.67;;;3.60;99.90;;;;;;5074943;28;20508;-71
2020/12/01 12:18:54;;;;;;;8.57;5.17;;;3.60;99.90;;;;;;5094070;27;20451;-72
2020/12/01 12:21:19;;;;;;;12.63;7.07;;;3.60;99.90;;;;;;5071131;27;20304;-71
2020/12/01 12:23:46;;;;;;;10.87;6.90;;;3.60;99.90;;;;;;5073752;28;20660;-71
2020/12/01 12:26:12;;;;;;;12.40;6.53;;;3.70;99.90;;;;;;5081197;27;20646;-71
2020/12/01 12:28:41;;;;;;;12.37;6.27;;;3.70;99.90;;;;;;5080698;27;20997;-72
2020/12/01 12:31:08;;;;;;;11.60;6.10;;;3.70;99.90;;;;;;5086062;28;20461;-71
2020/12/01 12:33:33;;;;;;;11.03;6.33;;;3.70;99.90;;;;;;5087509;28;20463;-71
2020/12/01 12:36:00;;;;;;;9.60;6.10;;;3.70;99.90;;;;;;5073311;28;20445;-71
2020/12/01 12:38:28;;;;;;;12.33;7.63;;;3.70;99.90;;;;;;5103288;28;20224;-71
2020/12/01 12:40:54;;;;;;;11.70;7.97;;;3.70;99.90;;;;;;5111681;28;20461;-72
2020/12/01 12:43:20;;;;;;;17.57;8.47;;;3.70;99.90;;;;;;5095020;28;20461;-71
2020/12/01 12:45:46;;;;;;;17.90;9.10;;;3.70;99.90;;;;;;5095950;28;20290;-71
2020/12/01 12:48:13;;;;;;;14.33;9.37;;;3.70;99.90;;;;;;5111957;28;20470;-71
2020/12/01 12:50:39;;;;;;;15.77;8.00;;;3.70;99.90;;;;;;5124061;27;20462;-71
2020/12/01 12:53:04;;;;;;;18.63;8.33;;;3.70;99.90;;;;;;5082450;28;20457;-71
2020/12/01 12:55:30;;;;;;;11.80;7.93;;;3.70;99.90;;;;;;5077706;28;20217;-71
2020/12/01 12:57:59;;;;;;;14.07;8.50;;;3.80;99.90;;;;;;5077875;28;20213;-72
2020/12/01 13:00:29;;;;;;;15.70;9.40;;;3.80;99.90;;;;;;5102420;28;20300;-72
2020/12/01 13:02:55;;;;;;;17.10;7.97;;;3.80;99.90;;;;;;5092693;28;20563;-72
2020/12/01 13:05:22;;;;;;;10.97;8.13;;;3.80;99.90;;;;;;5095143;28;20443;-71
2020/12/01 13:07:47;;;;;;;12.07;7.03;;;3.80;99.90;;;;;;5095408;28;20458;-71
2020/12/01 13:10:13;;;;;;;11.57;6.50;;;3.80;99.90;;;;;;5092952;28;20431;-71
2020/12/01 13:12:39;;;;;;;12.97;7.00;;;3.80;99.90;;;;;;5107989;28;20227;-72
2020/12/01 13:15:06;;;;;;;10.97;6.53;;;3.80;99.90;;;;;;5094985;28;20451;-71
2020/12/01 13:17:32;;;;;;;10.13;6.83;;;3.80;99.90;;;;;;5095693;28;20454;-71
2020/12/01 13:19:58;;;;;;;8.83;6.27;;;3.80;99.90;;;;;;5086883;28;20449;-72
2020/12/01 13:22:24;;;;;;;9.80;6.33;;;3.80;99.90;;;;;;5085648;28;20460;-72
2020/12/01 13:24:49;;;;;;;11.73;7.20;;;3.80;99.90;;;;;;5092116;28;20272;-71
2020/12/01 13:27:15;;;;;;;10.67;6.90;;;3.80;99.90;;;;;;5091543;28;20217;-71
2020/12/01 13:29:41;;;;;;;8.10;6.03;;;3.80;99.90;;;;;;5081790;28;20289;-71
2020/12/01 13:32:07;;;;;;;9.60;5.23;;;3.80;99.90;;;;;;5080347;27;20205;-72
2020/12/01 13:34:32;;;;;;;11.77;6.00;;;3.90;99.90;;;;;;5092887;28;20210;-71
2020/12/01 13:36:58;;;;;;;16.07;8.10;;;3.90;99.90;;;;;;5075849;28;20475;-72
2020/12/01 13:39:24;;;;;;;28.47;12.47;;;3.90;99.90;;;;;;5094607;28;20262;-71
2020/12/01 13:41:54;;;;;;;22.40;9.30;;;3.90;99.90;;;;;;5095294;28;20218;-72
2020/12/01 13:44:21;;;;;;;14.67;7.13;;;3.90;99.90;;;;;;5110622;28;20845;-72
2020/12/01 13:46:51;;;;;;;15.23;7.60;;;3.90;99.90;;;;;;5096317;27;20459;-71